createdAt,value
2023-11-16T00:01:29.335Z,12.00
2023-11-16T00:03:56.226Z,9.88
2023-11-16T00:06:23.413Z,11.57
2023-11-16T00:08:50.336Z,13.85
2023-11-16T00:11:18.950Z,14.60
2023-11-16T00:13:47.426Z,9.95
2023-11-16T00:16:17.922Z,11.45
2023-11-16T00:18:44.981Z,11.15
2023-11-16T00:21:11.819Z,10.70
2023-11-16T00:23:38.775Z,10.18
2023-11-16T00:26:05.746Z,10.68
2023-11-16T00:28:32.638Z,10.73
2023-11-16T00:30:59.414Z,10.65
2023-11-16T00:33:27.366Z,10.15
2023-11-16T00:35:59.641Z,12.05
2023-11-16T00:38:29.482Z,12.95
2023-11-16T00:40:56.580Z,11.80
2023-11-16T00:43:25.145Z,9.93
2023-11-16T00:45:53.368Z,10.57
2023-11-16T00:48:20.676Z,11.80
2023-11-16T00:50:47.821Z,11.03
2023-11-16T00:53:15.154Z,11.30
2023-11-16T00:55:42.546Z,9.13
2023-11-16T00:58:09.719Z,11.32
2023-11-16T01:00:36.490Z,10.45
2023-11-16T01:03:07.414Z,10.53
2023-11-16T01:05:34.586Z,10.93
2023-11-16T01:08:01.330Z,10.68
2023-11-16T01:10:31.140Z,12.85
2023-11-16T01:13:01.120Z,12.07
2023-11-16T01:15:27.987Z,14.68
2023-11-16T01:17:54.918Z,11.27
2023-11-16T01:20:24.614Z,11.23
2023-11-16T01:23:11.841Z,12.43
2023-11-16T01:25:42.497Z,16.65
2023-11-16T01:28:10.919Z,9.50
2023-11-16T01:30:38.472Z,11.00
2023-11-16T01:33:09.351Z,13.45
2023-11-16T01:35:38.302Z,9.75
2023-11-16T01:38:07.072Z,14.10
2023-11-16T01:40:34.962Z,12.40
2023-11-16T01:43:02.358Z,12.15
2023-11-16T01:45:34.728Z,10.43
2023-11-16T01:48:08.183Z,12.60
2023-11-16T01:50:37.224Z,15.33
2023-11-16T01:53:10.715Z,13.97
2023-11-16T01:55:41.276Z,12.73
2023-11-16T01:58:10.736Z,10.75
2023-11-16T02:00:42.686Z,12.40
2023-11-16T02:03:11.021Z,12.15
2023-11-16T02:05:38.334Z,11.18
2023-11-16T02:08:12.021Z,13.77
2023-11-16T02:10:41.098Z,10.60
2023-11-16T02:13:27.506Z,10.77
2023-11-16T02:15:57.402Z,12.25
2023-11-16T02:18:26.648Z,10.50
2023-11-16T02:20:56.149Z,12.75
2023-11-16T02:23:23.324Z,14.10
2023-11-16T02:25:52.296Z,9.35
2023-11-16T02:28:20.608Z,15.40
2023-11-16T02:30:48.445Z,15.40
2023-11-16T02:33:15.286Z,13.13
2023-11-16T02:35:43.104Z,11.38
2023-11-16T02:38:14.028Z,14.23
2023-11-16T02:40:41.469Z,12.68
2023-11-16T02:43:08.509Z,15.35
2023-11-16T02:45:35.625Z,10.45
2023-11-16T02:48:04.752Z,10.20
2023-11-16T02:50:32.140Z,9.65
2023-11-16T02:52:59.070Z,12.27
2023-11-16T02:55:25.836Z,13.23
2023-11-16T02:57:58.922Z,12.73
2023-11-16T03:00:26.519Z,17.25
2023-11-16T03:02:55.359Z,14.60
2023-11-16T03:05:24.818Z,15.90
2023-11-16T03:07:52.003Z,13.68
2023-11-16T03:10:19.030Z,12.77
2023-11-16T03:12:47.048Z,12.90
2023-11-16T03:15:14.642Z,11.23
2023-11-16T03:17:45.034Z,10.98
2023-11-16T03:20:13.843Z,15.68
2023-11-16T03:22:41.274Z,14.18
2023-11-16T03:25:11.601Z,13.63
2023-11-16T03:27:38.816Z,11.52
2023-11-16T03:30:07.366Z,12.43
2023-11-16T03:32:34.496Z,13.77
2023-11-16T03:35:01.293Z,10.85
2023-11-16T03:37:28.082Z,11.77
2023-11-16T03:39:55.886Z,11.77
2023-11-16T03:42:22.694Z,12.40
2023-11-16T03:44:51.440Z,13.80
2023-11-16T03:47:18.596Z,13.30
2023-11-16T03:49:45.504Z,11.50
2023-11-16T03:52:12.636Z,11.57
2023-11-16T03:54:39.477Z,12.23
2023-11-16T03:57:06.471Z,12.43
2023-11-16T03:59:34.291Z,15.10
2023-11-16T04:02:01.151Z,14.10
2023-11-16T04:04:30.055Z,12.43
2023-11-16T04:06:57.134Z,13.90
2023-11-16T04:09:25.421Z,13.82
2023-11-16T04:11:54.509Z,11.82
2023-11-16T04:14:21.289Z,15.13
2023-11-16T04:16:54.123Z,14.00
2023-11-16T04:19:22.393Z,14.88
2023-11-16T04:21:51.905Z,13.35
2023-11-16T04:24:19.825Z,12.05
2023-11-16T04:26:49.813Z,13.18
2023-11-16T04:29:17.421Z,11.90
2023-11-16T04:31:46.048Z,13.55
2023-11-16T04:34:13.591Z,13.77
2023-11-16T04:36:43.314Z,12.30
2023-11-16T04:39:13.232Z,14.95
2023-11-16T04:41:43.706Z,14.05
2023-11-16T04:44:10.472Z,15.90
2023-11-16T04:46:37.958Z,14.87
2023-11-16T04:49:06.118Z,14.70
2023-11-16T04:51:33.384Z,11.73
2023-11-16T04:54:00.213Z,11.57
2023-11-16T04:56:26.960Z,12.77
2023-11-16T04:58:53.769Z,10.90
2023-11-16T05:01:20.567Z,9.95
2023-11-16T05:03:47.603Z,12.10
2023-11-16T05:06:15.233Z,12.40
2023-11-16T05:08:42.817Z,15.35
2023-11-16T05:11:09.727Z,16.52
2023-11-16T05:13:36.543Z,13.77
2023-11-16T05:16:05.583Z,10.10
2023-11-16T05:18:32.847Z,10.20
2023-11-16T05:21:02.400Z,10.00
2023-11-16T05:23:29.350Z,11.80
2023-11-16T05:25:57.975Z,11.35
2023-11-16T05:28:27.251Z,11.57
2023-11-16T05:30:54.454Z,13.50
2023-11-16T05:33:24.131Z,15.90
2023-11-16T05:35:54.993Z,14.77
2023-11-16T05:38:23.722Z,14.05
2023-11-16T05:40:53.218Z,13.00
2023-11-16T05:43:21.171Z,13.68
2023-11-16T05:45:48.242Z,13.90
2023-11-16T05:48:15.899Z,11.70
2023-11-16T05:50:44.088Z,10.50
2023-11-16T05:53:12.385Z,12.07
2023-11-16T05:55:39.839Z,13.50
2023-11-16T05:58:10.747Z,12.90
2023-11-16T06:00:38.921Z,13.57
2023-11-16T06:03:07.366Z,10.35
2023-11-16T06:05:37.413Z,11.23
2023-11-16T06:08:04.842Z,15.57
2023-11-16T06:10:32.938Z,11.55
2023-11-16T06:13:01.587Z,12.45
2023-11-16T06:15:31.726Z,13.02
2023-11-16T06:18:02.878Z,14.13
2023-11-16T06:20:32.993Z,15.90
2023-11-16T06:23:00.407Z,30.77
2023-11-16T06:25:27.393Z,14.07
2023-11-16T06:27:54.303Z,10.25
2023-11-16T06:30:21.303Z,11.57
2023-11-16T06:32:49.010Z,13.23
2023-11-16T06:35:16.218Z,13.93
2023-11-16T06:37:44.935Z,12.85
2023-11-16T06:40:13.442Z,12.70
2023-11-16T06:42:41.895Z,11.27
2023-11-16T06:45:10.053Z,10.50
2023-11-16T06:47:37.329Z,13.38
2023-11-16T06:50:05.315Z,12.82
2023-11-16T06:52:34.058Z,8.88
2023-11-16T06:55:01.651Z,9.80
2023-11-16T06:57:28.737Z,9.80
2023-11-16T06:59:55.791Z,8.25
2023-11-16T07:02:23.788Z,8.23
2023-11-16T07:04:50.934Z,9.40
2023-11-16T07:07:18.584Z,9.93
2023-11-16T07:09:51.425Z,1999.90
2023-11-16T07:12:22.150Z,1978.35
2023-11-16T07:14:53.689Z,411.50
2023-11-16T07:17:21.736Z,11.63
2023-11-16T07:19:49.575Z,9.40
2023-11-16T07:22:16.529Z,10.63
2023-11-16T07:24:45.451Z,10.45
2023-11-16T07:27:13.570Z,9.13
2023-11-16T07:29:42.415Z,8.90
2023-11-16T07:32:09.200Z,9.95
2023-11-16T07:34:38.983Z,872.33
2023-11-16T07:37:05.869Z,1999.90
2023-11-16T07:39:33.074Z,1512.43
2023-11-16T07:42:00.656Z,575.67
2023-11-16T07:44:28.205Z,25.33
2023-11-16T07:46:55.538Z,7.57
2023-11-16T07:49:22.445Z,12.48
2023-11-16T07:51:49.340Z,6.82
2023-11-16T07:54:19.723Z,10.30
2023-11-16T07:56:58.482Z,6.30
2023-11-16T07:59:32.481Z,9.63
2023-11-16T08:02:02.144Z,6.95
2023-11-16T08:04:31.009Z,10.02
2023-11-16T08:07:00.848Z,11.15
2023-11-16T08:09:32.574Z,9.80
2023-11-16T08:12:01.282Z,19.73
2023-11-16T08:14:32.352Z,16.25
2023-11-16T08:17:00.328Z,12.93
2023-11-16T08:19:27.861Z,11.15
2023-11-16T08:21:58.461Z,9.60
2023-11-16T08:24:27.618Z,8.10
2023-11-16T08:26:59.870Z,7.13
2023-11-16T08:29:27.194Z,8.37
2023-11-16T08:31:57.693Z,11.20
2023-11-16T08:34:29.062Z,7.68
2023-11-16T08:36:56.805Z,10.77
2023-11-16T08:39:24.746Z,9.23
2023-11-16T08:41:54.237Z,6.53
2023-11-16T08:44:23.864Z,8.65
2023-11-16T08:46:57.237Z,7.78
2023-11-16T08:49:24.534Z,7.80
2023-11-16T08:52:00.216Z,9.00
2023-11-16T08:54:29.469Z,8.13
2023-11-16T08:56:57.422Z,8.70
2023-11-16T08:59:24.555Z,8.07
2023-11-16T09:01:51.577Z,5.70
2023-11-16T09:04:18.906Z,5.28
2023-11-16T09:06:45.983Z,7.75
2023-11-16T09:09:31.579Z,6.38
2023-11-16T09:11:58.724Z,6.22
2023-11-16T09:14:27.876Z,5.00
2023-11-16T09:17:12.226Z,8.65
2023-11-16T09:19:41.815Z,6.13
2023-11-16T09:22:10.704Z,12.80
2023-11-16T09:24:38.337Z,5.30
2023-11-16T09:27:05.842Z,6.17
2023-11-16T09:29:34.434Z,5.13
2023-11-16T09:32:01.248Z,4.03
2023-11-16T09:34:28.559Z,5.43
2023-11-16T09:36:55.493Z,4.63
2023-11-16T09:39:23.328Z,4.63
2023-11-16T09:41:50.894Z,5.38
2023-11-16T09:44:20.046Z,5.22
2023-11-16T09:46:48.520Z,8.80
2023-11-16T09:49:18.731Z,4.70
2023-11-16T09:51:47.251Z,7.30
2023-11-16T09:54:15.852Z,5.07
2023-11-16T09:56:49.807Z,10.95
2023-11-16T09:59:26.547Z,5.97
2023-11-16T10:02:08.566Z,3.40
2023-11-16T10:04:36.476Z,3.92
2023-11-16T10:07:06.627Z,6.28
2023-11-16T10:09:46.004Z,4.13
2023-11-16T10:12:13.662Z,5.73
2023-11-16T10:14:41.695Z,4.35
2023-11-16T10:17:08.705Z,4.50
2023-11-16T10:19:35.915Z,3.80
2023-11-16T10:22:02.857Z,6.17
2023-11-16T10:24:34.667Z,4.20
2023-11-16T10:27:02.660Z,6.72
2023-11-16T10:29:29.546Z,4.55
2023-11-16T10:31:58.038Z,4.72
2023-11-16T10:34:25.976Z,4.50
2023-11-16T10:37:02.169Z,7.95
2023-11-16T10:39:29.275Z,5.72
2023-11-16T10:41:59.689Z,5.18
2023-11-16T10:44:30.609Z,4.47
2023-11-16T10:46:58.942Z,5.53
2023-11-16T10:49:28.759Z,4.30
2023-11-16T10:52:00.096Z,3.88
2023-11-16T10:54:29.062Z,3.75
2023-11-16T10:56:56.072Z,2.72
2023-11-16T10:59:28.626Z,4.22
2023-11-16T11:01:58.323Z,2.60
2023-11-16T11:04:27.005Z,3.10
2023-11-16T11:06:56.725Z,3.33
2023-11-16T11:09:42.182Z,2.38
2023-11-16T11:12:17.249Z,2.08
2023-11-16T11:14:47.995Z,2.15
2023-11-16T15:59:20.704Z,6.40
2023-11-16T16:01:47.889Z,6.85
2023-11-16T16:04:15.837Z,5.80
2023-11-16T16:06:43.112Z,5.60
2023-11-16T16:09:10.098Z,5.07
2023-11-16T16:14:04.156Z,8.43
2023-11-16T16:16:32.981Z,7.43
2023-11-16T16:19:01.638Z,8.70
2023-11-16T16:21:28.868Z,6.30
2023-11-16T16:23:55.919Z,10.38
2023-11-16T16:26:23.944Z,7.78
2023-11-16T16:28:50.753Z,7.25
2023-11-16T16:31:23.968Z,11.70
2023-11-16T16:33:51.361Z,12.40
2023-11-16T16:36:19.315Z,8.43
2023-11-16T16:38:46.211Z,9.02
2023-11-16T16:41:12.970Z,8.68
2023-11-16T16:43:41.094Z,5.32
2023-11-16T16:46:22.706Z,8.85
2023-11-16T16:48:49.834Z,11.50
2023-11-16T16:51:16.647Z,7.63
